CTH8 weather

Tally-Ho Field
Cookstown, Ontario, Canada

Public forecast

Using degrees Celsius for public forecast. Weather courtesy of forecast.io.

METAR (pilot weather report)

Closest report is CFB Borden, 6.8 nm (12.5 km) WNW. Retrieved 2019/05/22 14:00 UTC (7 minutes ago):

CYBN 221400Z AUTO 14008KT 9SM CLR 13/06 A3023 RMK SLP239

TAF (pilot weather forecast)

Closest forecast is CFB Borden, 6.8 nm (12.5 km) WNW. Retrieved 2019/05/22 12:33 UTC (2 hours ago):

TAF TAF CYBN 221130Z 2212/2224 VRB03KT P6SM SCT140 BECMG 2212/2214 15012G22KT BKN140 FM222000 15015G25KT P6SM BKN040 RMK FCST BASED ON AUTO OBS. NXT FCST BY 221800Z